Higginson, Arkansas
Current Conditions -  °F | °C
As of 9:56 AM on Saturday 20 Dec 2014 (Local Time) from KSRC Reporting Station
Overcast Overcast  
Wind Chill: 41°   Ceiling: 5000
Heat Index: 41°   Visibility: 9mi
Dew Point: 35°   Wind: 3mph
Humidity: 79%   Direction: 50°NE
Pressure: 30.31"   Gusts: NA
Location:  35.19°N, 91.71°W
Report Text: KSRC 201556Z AUTO 05003KT 9SM OVC050 05/02 A3031 RMK AO2 SLP270 T00500017 TSNO
Loading
Personal Weather Stations






























Interactive Weather Map New forecast layout! Learn more

10-Day Weather Forecast

Advertisements
Track Severe Weather on mobile